sensor_id;sensor_type;location;lat;lon;timestamp;P1;durP1;ratioP1;P2;durP2;ratioP2
55312;SDS011;46892;45.668;11.756;2023-09-19T00:01:08;9.13;;;7.33;;
55312;SDS011;46892;45.668;11.756;2023-09-19T00:03:34;12.40;;;9.50;;
55312;SDS011;46892;45.668;11.756;2023-09-19T00:06:04;12.52;;;7.75;;
55312;SDS011;46892;45.668;11.756;2023-09-19T00:08:32;13.17;;;8.27;;
55312;SDS011;46892;45.668;11.756;2023-09-19T00:10:58;15.07;;;9.87;;
55312;SDS011;46892;45.668;11.756;2023-09-19T00:13:30;13.17;;;10.00;;
55312;SDS011;46892;45.668;11.756;2023-09-19T00:16:01;12.13;;;9.27;;
55312;SDS011;46892;45.668;11.756;2023-09-19T00:18:32;13.27;;;9.77;;
55312;SDS011;46892;45.668;11.756;2023-09-19T00:20:59;13.77;;;9.67;;
55312;SDS011;46892;45.668;11.756;2023-09-19T00:23:26;13.37;;;9.57;;
55312;SDS011;46892;45.668;11.756;2023-09-19T00:25:53;15.33;;;10.07;;
55312;SDS011;46892;45.668;11.756;2023-09-19T00:28:22;13.73;;;9.52;;
55312;SDS011;46892;45.668;11.756;2023-09-19T00:30:48;13.77;;;9.17;;
55312;SDS011;46892;45.668;11.756;2023-09-19T00:33:17;13.70;;;8.73;;
55312;SDS011;46892;45.668;11.756;2023-09-19T00:36:02;15.87;;;10.70;;
55312;SDS011;46892;45.668;11.756;2023-09-19T00:38:30;13.57;;;10.00;;
55312;SDS011;46892;45.668;11.756;2023-09-19T00:40:57;16.47;;;9.80;;
55312;SDS011;46892;45.668;11.756;2023-09-19T00:43:24;13.50;;;8.43;;
55312;SDS011;46892;45.668;11.756;2023-09-19T00:45:52;14.53;;;9.03;;
55312;SDS011;46892;45.668;11.756;2023-09-19T00:48:19;15.10;;;11.13;;
55312;SDS011;46892;45.668;11.756;2023-09-19T00:50:47;18.30;;;10.87;;
55312;SDS011;46892;45.668;11.756;2023-09-19T00:53:15;17.63;;;10.20;;
55312;SDS011;46892;45.668;11.756;2023-09-19T00:55:43;19.97;;;10.67;;
55312;SDS011;46892;45.668;11.756;2023-09-19T00:58:10;13.17;;;9.10;;
55312;SDS011;46892;45.668;11.756;2023-09-19T01:00:36;14.03;;;9.40;;
55312;SDS011;46892;45.668;11.756;2023-09-19T01:03:03;13.80;;;9.70;;
55312;SDS011;46892;45.668;11.756;2023-09-19T01:05:31;11.83;;;8.43;;
55312;SDS011;46892;45.668;11.756;2023-09-19T01:07:58;15.13;;;9.53;;
55312;SDS011;46892;45.668;11.756;2023-09-19T01:10:24;16.27;;;9.87;;
55312;SDS011;46892;45.668;11.756;2023-09-19T01:17:58;15.50;;;10.23;;
55312;SDS011;46892;45.668;11.756;2023-09-19T01:23:20;12.07;;;8.67;;
55312;SDS011;46892;45.668;11.756;2023-09-19T01:26:07;10.87;;;8.43;;
55312;SDS011;46892;45.668;11.756;2023-09-19T01:31:22;15.50;;;9.97;;
55312;SDS011;46892;45.668;11.756;2023-09-19T01:34:02;11.93;;;8.73;;
55312;SDS011;46892;45.668;11.756;2023-09-19T01:36:32;9.90;;;7.80;;
55312;SDS011;46892;45.668;11.756;2023-09-19T01:39:12;14.27;;;8.67;;
55312;SDS011;46892;45.668;11.756;2023-09-19T01:41:46;11.37;;;8.50;;
55312;SDS011;46892;45.668;11.756;2023-09-19T01:44:29;13.80;;;8.63;;
55312;SDS011;46892;45.668;11.756;2023-09-19T01:47:13;10.90;;;8.17;;
55312;SDS011;46892;45.668;11.756;2023-09-19T01:50:11;12.60;;;8.67;;
55312;SDS011;46892;45.668;11.756;2023-09-19T01:53:04;10.23;;;7.27;;
55312;SDS011;46892;45.668;11.756;2023-09-19T01:55:36;12.07;;;7.17;;
55312;SDS011;46892;45.668;11.756;2023-09-19T01:58:53;14.30;;;7.37;;
55312;SDS011;46892;45.668;11.756;2023-09-19T02:00:54;18.30;;;9.07;;
55312;SDS011;46892;45.668;11.756;2023-09-19T02:03:21;15.50;;;10.03;;
55312;SDS011;46892;45.668;11.756;2023-09-19T02:05:48;10.60;;;7.03;;
55312;SDS011;46892;45.668;11.756;2023-09-19T02:08:19;12.03;;;6.30;;
55312;SDS011;46892;45.668;11.756;2023-09-19T02:10:45;10.43;;;7.20;;
55312;SDS011;46892;45.668;11.756;2023-09-19T02:13:18;9.83;;;6.37;;
55312;SDS011;46892;45.668;11.756;2023-09-19T02:15:45;20.10;;;8.95;;
55312;SDS011;46892;45.668;11.756;2023-09-19T02:18:11;14.83;;;8.23;;
55312;SDS011;46892;45.668;11.756;2023-09-19T02:20:38;14.53;;;8.90;;
55312;SDS011;46892;45.668;11.756;2023-09-19T02:23:04;16.97;;;8.63;;
55312;SDS011;46892;45.668;11.756;2023-09-19T02:25:31;11.73;;;7.57;;
55312;SDS011;46892;45.668;11.756;2023-09-19T02:27:57;12.90;;;7.63;;
55312;SDS011;46892;45.668;11.756;2023-09-19T02:30:28;11.53;;;7.17;;
55312;SDS011;46892;45.668;11.756;2023-09-19T02:32:54;11.87;;;7.27;;
55312;SDS011;46892;45.668;11.756;2023-09-19T02:35:20;8.37;;;6.40;;
55312;SDS011;46892;45.668;11.756;2023-09-19T02:37:49;15.37;;;8.37;;
55312;SDS011;46892;45.668;11.756;2023-09-19T02:40:15;11.93;;;8.80;;
55312;SDS011;46892;45.668;11.756;2023-09-19T02:42:44;11.80;;;8.30;;
55312;SDS011;46892;45.668;11.756;2023-09-19T02:45:12;15.20;;;8.43;;
55312;SDS011;46892;45.668;11.756;2023-09-19T02:47:39;10.87;;;7.53;;
55312;SDS011;46892;45.668;11.756;2023-09-19T02:50:05;15.20;;;8.73;;
55312;SDS011;46892;45.668;11.756;2023-09-19T02:52:31;11.90;;;8.63;;
55312;SDS011;46892;45.668;11.756;2023-09-19T02:54:57;12.70;;;8.00;;
55312;SDS011;46892;45.668;11.756;2023-09-19T02:57:26;8.53;;;6.93;;
55312;SDS011;46892;45.668;11.756;2023-09-19T02:59:52;16.30;;;9.70;;
55312;SDS011;46892;45.668;11.756;2023-09-19T03:02:18;12.60;;;8.10;;
55312;SDS011;46892;45.668;11.756;2023-09-19T03:04:44;10.87;;;7.30;;
55312;SDS011;46892;45.668;11.756;2023-09-19T03:07:10;11.07;;;7.70;;
55312;SDS011;46892;45.668;11.756;2023-09-19T03:09:36;13.53;;;8.33;;
55312;SDS011;46892;45.668;11.756;2023-09-19T03:12:02;13.97;;;8.63;;
55312;SDS011;46892;45.668;11.756;2023-09-19T03:14:29;14.10;;;8.97;;
55312;SDS011;46892;45.668;11.756;2023-09-19T03:17:00;10.83;;;7.00;;
55312;SDS011;46892;45.668;11.756;2023-09-19T03:19:29;13.50;;;8.25;;
55312;SDS011;46892;45.668;11.756;2023-09-19T03:21:58;11.87;;;8.00;;
55312;SDS011;46892;45.668;11.756;2023-09-19T03:24:24;15.03;;;8.27;;
55312;SDS011;46892;45.668;11.756;2023-09-19T03:26:51;14.27;;;7.97;;
55312;SDS011;46892;45.668;11.756;2023-09-19T03:29:17;17.27;;;8.07;;
55312;SDS011;46892;45.668;11.756;2023-09-19T03:31:43;10.90;;;7.17;;
55312;SDS011;46892;45.668;11.756;2023-09-19T03:34:09;14.93;;;7.97;;
55312;SDS011;46892;45.668;11.756;2023-09-19T03:36:35;13.83;;;7.77;;
55312;SDS011;46892;45.668;11.756;2023-09-19T03:39:01;10.47;;;7.33;;
55312;SDS011;46892;45.668;11.756;2023-09-19T03:41:30;13.43;;;6.70;;
55312;SDS011;46892;45.668;11.756;2023-09-19T03:43:56;13.37;;;6.90;;
55312;SDS011;46892;45.668;11.756;2023-09-19T03:46:22;9.73;;;6.37;;
55312;SDS011;46892;45.668;11.756;2023-09-19T03:48:48;11.73;;;7.60;;
55312;SDS011;46892;45.668;11.756;2023-09-19T03:51:13;10.70;;;7.03;;
55312;SDS011;46892;45.668;11.756;2023-09-19T03:53:39;12.60;;;7.27;;
55312;SDS011;46892;45.668;11.756;2023-09-19T03:56:05;15.20;;;8.23;;
55312;SDS011;46892;45.668;11.756;2023-09-19T03:58:30;13.60;;;7.60;;
55312;SDS011;46892;45.668;11.756;2023-09-19T04:00:56;11.40;;;7.37;;
55312;SDS011;46892;45.668;11.756;2023-09-19T04:03:23;9.93;;;7.13;;
55312;SDS011;46892;45.668;11.756;2023-09-19T04:05:59;11.13;;;7.97;;
55312;SDS011;46892;45.668;11.756;2023-09-19T04:08:25;10.93;;;7.80;;
55312;SDS011;46892;45.668;11.756;2023-09-19T04:10:51;11.53;;;7.07;;
55312;SDS011;46892;45.668;11.756;2023-09-19T04:13:18;12.70;;;7.60;;
55312;SDS011;46892;45.668;11.756;2023-09-19T04:15:43;11.37;;;7.37;;
55312;SDS011;46892;45.668;11.756;2023-09-19T04:18:11;14.37;;;8.60;;
55312;SDS011;46892;45.668;11.756;2023-09-19T04:20:37;17.47;;;11.10;;
55312;SDS011;46892;45.668;11.756;2023-09-19T04:23:03;16.80;;;10.13;;
55312;SDS011;46892;45.668;11.756;2023-09-19T04:25:30;16.93;;;9.53;;
55312;SDS011;46892;45.668;11.756;2023-09-19T04:27:56;18.30;;;9.77;;
55312;SDS011;46892;45.668;11.756;2023-09-19T04:30:22;17.83;;;9.33;;
55312;SDS011;46892;45.668;11.756;2023-09-19T04:32:48;17.03;;;8.13;;
55312;SDS011;46892;45.668;11.756;2023-09-19T04:35:15;14.33;;;8.13;;
55312;SDS011;46892;45.668;11.756;2023-09-19T04:37:41;13.30;;;8.03;;
55312;SDS011;46892;45.668;11.756;2023-09-19T04:40:08;13.70;;;7.23;;
55312;SDS011;46892;45.668;11.756;2023-09-19T04:42:39;13.77;;;8.80;;
55312;SDS011;46892;45.668;11.756;2023-09-19T04:45:06;15.03;;;8.23;;
55312;SDS011;46892;45.668;11.756;2023-09-19T04:47:33;9.80;;;6.93;;
55312;SDS011;46892;45.668;11.756;2023-09-19T04:49:59;9.47;;;7.33;;
55312;SDS011;46892;45.668;11.756;2023-09-19T04:52:25;12.87;;;8.00;;
55312;SDS011;46892;45.668;11.756;2023-09-19T04:54:50;9.67;;;6.00;;
55312;SDS011;46892;45.668;11.756;2023-09-19T04:57:16;12.17;;;7.00;;
55312;SDS011;46892;45.668;11.756;2023-09-19T04:59:42;13.70;;;8.00;;
55312;SDS011;46892;45.668;11.756;2023-09-19T05:02:07;12.10;;;8.80;;
55312;SDS011;46892;45.668;11.756;2023-09-19T05:04:33;15.00;;;9.80;;
55312;SDS011;46892;45.668;11.756;2023-09-19T05:06:59;15.80;;;10.20;;
55312;SDS011;46892;45.668;11.756;2023-09-19T05:09:26;14.27;;;9.00;;
55312;SDS011;46892;45.668;11.756;2023-09-19T05:11:51;16.67;;;11.83;;
55312;SDS011;46892;45.668;11.756;2023-09-19T05:14:18;18.77;;;11.63;;
55312;SDS011;46892;45.668;11.756;2023-09-19T05:16:46;17.20;;;9.83;;
55312;SDS011;46892;45.668;11.756;2023-09-19T05:19:12;12.43;;;9.47;;
55312;SDS011;46892;45.668;11.756;2023-09-19T05:21:37;12.63;;;8.60;;
55312;SDS011;46892;45.668;11.756;2023-09-19T05:24:06;11.50;;;7.87;;
55312;SDS011;46892;45.668;11.756;2023-09-19T05:26:32;17.60;;;9.03;;
55312;SDS011;46892;45.668;11.756;2023-09-19T05:28:58;10.83;;;7.70;;
55312;SDS011;46892;45.668;11.756;2023-09-19T05:31:24;13.53;;;8.07;;
55312;SDS011;46892;45.668;11.756;2023-09-19T05:33:50;10.93;;;7.70;;
55312;SDS011;46892;45.668;11.756;2023-09-19T05:36:16;14.03;;;9.63;;
55312;SDS011;46892;45.668;11.756;2023-09-19T05:38:42;15.27;;;9.00;;
55312;SDS011;46892;45.668;11.756;2023-09-19T05:41:09;16.43;;;9.37;;
55312;SDS011;46892;45.668;11.756;2023-09-19T05:43:38;13.57;;;8.80;;
55312;SDS011;46892;45.668;11.756;2023-09-19T05:46:06;14.97;;;9.80;;
55312;SDS011;46892;45.668;11.756;2023-09-19T05:48:37;16.93;;;10.80;;
55312;SDS011;46892;45.668;11.756;2023-09-19T05:51:04;10.97;;;8.13;;
55312;SDS011;46892;45.668;11.756;2023-09-19T05:53:30;10.13;;;7.20;;
55312;SDS011;46892;45.668;11.756;2023-09-19T05:55:56;16.37;;;7.57;;
55312;SDS011;46892;45.668;11.756;2023-09-19T05:58:22;9.50;;;6.37;;
55312;SDS011;46892;45.668;11.756;2023-09-19T06:00:47;11.77;;;6.30;;
55312;SDS011;46892;45.668;11.756;2023-09-19T06:03:14;10.23;;;5.43;;
55312;SDS011;46892;45.668;11.756;2023-09-19T06:05:40;10.33;;;6.27;;
55312;SDS011;46892;45.668;11.756;2023-09-19T06:08:06;9.43;;;6.33;;
55312;SDS011;46892;45.668;11.756;2023-09-19T06:10:33;13.47;;;6.40;;
55312;SDS011;46892;45.668;11.756;2023-09-19T06:13:02;9.73;;;5.77;;
55312;SDS011;46892;45.668;11.756;2023-09-19T06:15:34;9.43;;;5.17;;
55312;SDS011;46892;45.668;11.756;2023-09-19T06:18:01;8.60;;;4.73;;
55312;SDS011;46892;45.668;11.756;2023-09-19T06:20:30;7.27;;;4.50;;
55312;SDS011;46892;45.668;11.756;2023-09-19T06:22:56;7.97;;;4.50;;
55312;SDS011;46892;45.668;11.756;2023-09-19T06:25:22;10.55;;;4.93;;
55312;SDS011;46892;45.668;11.756;2023-09-19T06:27:51;9.57;;;4.15;;
55312;SDS011;46892;45.668;11.756;2023-09-19T06:30:19;8.27;;;4.77;;
55312;SDS011;46892;45.668;11.756;2023-09-19T06:32:45;10.90;;;4.60;;
55312;SDS011;46892;45.668;11.756;2023-09-19T06:35:11;7.25;;;4.50;;
55312;SDS011;46892;45.668;11.756;2023-09-19T06:37:38;11.73;;;5.40;;
55312;SDS011;46892;45.668;11.756;2023-09-19T06:40:08;7.20;;;4.55;;
55312;SDS011;46892;45.668;11.756;2023-09-19T06:42:45;13.45;;;4.32;;
55312;SDS011;46892;45.668;11.756;2023-09-19T06:45:21;7.90;;;4.65;;
55312;SDS011;46892;45.668;11.756;2023-09-19T06:47:48;6.80;;;3.92;;
55312;SDS011;46892;45.668;11.756;2023-09-19T06:50:16;8.45;;;3.83;;
55312;SDS011;46892;45.668;11.756;2023-09-19T06:52:44;7.00;;;3.90;;
55312;SDS011;46892;45.668;11.756;2023-09-19T06:55:10;6.35;;;3.70;;
55312;SDS011;46892;45.668;11.756;2023-09-19T06:57:38;9.73;;;4.00;;
55312;SDS011;46892;45.668;11.756;2023-09-19T07:00:06;10.77;;;4.30;;
55312;SDS011;46892;45.668;11.756;2023-09-19T07:02:43;8.25;;;4.05;;
55312;SDS011;46892;45.668;11.756;2023-09-19T07:05:22;7.32;;;3.92;;
55312;SDS011;46892;45.668;11.756;2023-09-19T07:07:48;10.52;;;4.22;;
55312;SDS011;46892;45.668;11.756;2023-09-19T07:10:14;8.93;;;4.78;;
55312;SDS011;46892;45.668;11.756;2023-09-19T07:12:40;11.07;;;5.70;;
55312;SDS011;46892;45.668;11.756;2023-09-19T07:15:07;9.52;;;5.38;;
55312;SDS011;46892;45.668;11.756;2023-09-19T07:17:33;9.60;;;4.95;;
55312;SDS011;46892;45.668;11.756;2023-09-19T07:19:59;11.45;;;5.38;;
55312;SDS011;46892;45.668;11.756;2023-09-19T07:22:27;9.93;;;4.70;;
55312;SDS011;46892;45.668;11.756;2023-09-19T07:24:53;9.15;;;4.90;;
55312;SDS011;46892;45.668;11.756;2023-09-19T07:27:20;9.35;;;4.85;;
55312;SDS011;46892;45.668;11.756;2023-09-19T07:29:45;10.52;;;5.55;;
55312;SDS011;46892;45.668;11.756;2023-09-19T07:32:11;11.15;;;5.00;;
55312;SDS011;46892;45.668;11.756;2023-09-19T07:34:38;8.88;;;4.70;;
55312;SDS011;46892;45.668;11.756;2023-09-19T07:37:05;7.70;;;4.05;;
55312;SDS011;46892;45.668;11.756;2023-09-19T07:39:31;9.02;;;4.20;;
55312;SDS011;46892;45.668;11.756;2023-09-19T07:41:57;9.25;;;4.18;;
55312;SDS011;46892;45.668;11.756;2023-09-19T07:44:23;8.63;;;4.15;;
55312;SDS011;46892;45.668;11.756;2023-09-19T07:46:50;7.85;;;4.20;;
55312;SDS011;46892;45.668;11.756;2023-09-19T07:49:17;8.13;;;4.47;;
55312;SDS011;46892;45.668;11.756;2023-09-19T07:51:44;11.30;;;4.15;;
55312;SDS011;46892;45.668;11.756;2023-09-19T07:54:12;8.93;;;3.30;;
55312;SDS011;46892;45.668;11.756;2023-09-19T07:56:40;8.98;;;4.10;;
55312;SDS011;46892;45.668;11.756;2023-09-19T07:59:05;5.38;;;2.83;;
55312;SDS011;46892;45.668;11.756;2023-09-19T08:01:31;5.68;;;2.78;;
55312;SDS011;46892;45.668;11.756;2023-09-19T08:03:58;6.50;;;2.90;;
55312;SDS011;46892;45.668;11.756;2023-09-19T08:06:23;6.57;;;2.42;;
55312;SDS011;46892;45.668;11.756;2023-09-19T08:08:51;6.75;;;4.10;;
55312;SDS011;46892;45.668;11.756;2023-09-19T08:11:18;8.75;;;4.10;;
55312;SDS011;46892;45.668;11.756;2023-09-19T08:13:46;7.60;;;4.40;;
55312;SDS011;46892;45.668;11.756;2023-09-19T08:16:14;7.95;;;4.80;;
55312;SDS011;46892;45.668;11.756;2023-09-19T08:18:40;8.73;;;4.35;;
55312;SDS011;46892;45.668;11.756;2023-09-19T08:21:06;10.02;;;4.30;;
55312;SDS011;46892;45.668;11.756;2023-09-19T08:23:35;6.35;;;3.88;;
55312;SDS011;46892;45.668;11.756;2023-09-19T08:26:04;8.50;;;4.18;;
55312;SDS011;46892;45.668;11.756;2023-09-19T08:28:36;10.63;;;4.90;;
55312;SDS011;46892;45.668;11.756;2023-09-19T08:31:05;7.60;;;5.23;;
55312;SDS011;46892;45.668;11.756;2023-09-19T08:33:35;13.45;;;6.90;;
55312;SDS011;46892;45.668;11.756;2023-09-19T08:36:04;7.25;;;4.63;;
55312;SDS011;46892;45.668;11.756;2023-09-19T08:38:31;10.40;;;4.75;;
55312;SDS011;46892;45.668;11.756;2023-09-19T08:40:59;10.13;;;5.05;;
55312;SDS011;46892;45.668;11.756;2023-09-19T08:43:26;9.68;;;5.30;;
55312;SDS011;46892;45.668;11.756;2023-09-19T08:45:58;9.30;;;5.05;;
55312;SDS011;46892;45.668;11.756;2023-09-19T08:48:54;8.63;;;4.68;;
55312;SDS011;46892;45.668;11.756;2023-09-19T08:51:33;5.97;;;4.38;;
55312;SDS011;46892;45.668;11.756;2023-09-19T08:54:06;7.00;;;3.70;;
55312;SDS011;46892;45.668;11.756;2023-09-19T08:56:33;5.75;;;3.13;;
55312;SDS011;46892;45.668;11.756;2023-09-19T08:59:05;7.55;;;3.45;;
55312;SDS011;46892;45.668;11.756;2023-09-19T09:01:32;8.82;;;4.20;;
55312;SDS011;46892;45.668;11.756;2023-09-19T09:03:58;4.85;;;2.90;;
55312;SDS011;46892;45.668;11.756;2023-09-19T09:06:26;5.97;;;2.70;;
55312;SDS011;46892;45.668;11.756;2023-09-19T09:08:55;7.55;;;2.65;;
55312;SDS011;46892;45.668;11.756;2023-09-19T09:11:21;4.05;;;2.08;;
55312;SDS011;46892;45.668;11.756;2023-09-19T09:13:50;6.45;;;2.50;;
55312;SDS011;46892;45.668;11.756;2023-09-19T09:16:16;5.78;;;2.60;;
55312;SDS011;46892;45.668;11.756;2023-09-19T09:18:45;8.52;;;4.32;;
55312;SDS011;46892;45.668;11.756;2023-09-19T09:21:11;7.72;;;4.82;;
55312;SDS011;46892;45.668;11.756;2023-09-19T09:23:38;11.07;;;4.65;;
55312;SDS011;46892;45.668;11.756;2023-09-19T09:26:04;8.60;;;4.30;;
55312;SDS011;46892;45.668;11.756;2023-09-19T09:28:34;8.60;;;5.22;;
55312;SDS011;46892;45.668;11.756;2023-09-19T09:31:01;10.90;;;5.40;;
55312;SDS011;46892;45.668;11.756;2023-09-19T09:33:34;11.02;;;5.53;;
55312;SDS011;46892;45.668;11.756;2023-09-19T09:36:02;9.55;;;5.53;;
55312;SDS011;46892;45.668;11.756;2023-09-19T09:38:29;9.15;;;5.95;;
55312;SDS011;46892;45.668;11.756;2023-09-19T09:41:08;12.13;;;6.07;;
55312;SDS011;46892;45.668;11.756;2023-09-19T09:43:35;9.23;;;6.63;;
55312;SDS011;46892;45.668;11.756;2023-09-19T09:46:07;10.32;;;6.25;;
55312;SDS011;46892;45.668;11.756;2023-09-19T09:49:04;8.73;;;5.82;;
55312;SDS011;46892;45.668;11.756;2023-09-19T09:55:04;10.57;;;6.82;;
55312;SDS011;46892;45.668;11.756;2023-09-19T09:57:31;11.48;;;5.93;;
55312;SDS011;46892;45.668;11.756;2023-09-19T09:59:59;11.30;;;5.47;;
55312;SDS011;46892;45.668;11.756;2023-09-19T10:02:41;11.73;;;6.15;;
55312;SDS011;46892;45.668;11.756;2023-09-19T10:07:38;7.68;;;4.90;;
55312;SDS011;46892;45.668;11.756;2023-09-19T10:10:07;8.80;;;5.10;;
55312;SDS011;46892;45.668;11.756;2023-09-19T10:12:48;11.30;;;5.43;;
55312;SDS011;46892;45.668;11.756;2023-09-19T10:15:16;8.55;;;5.28;;
55312;SDS011;46892;45.668;11.756;2023-09-19T10:17:46;10.07;;;5.18;;
55312;SDS011;46892;45.668;11.756;2023-09-19T10:20:13;10.23;;;5.88;;
55312;SDS011;46892;45.668;11.756;2023-09-19T10:23:06;10.00;;;5.45;;
55312;SDS011;46892;45.668;11.756;2023-09-19T10:25:41;10.82;;;6.00;;
55312;SDS011;46892;45.668;11.756;2023-09-19T10:28:09;11.35;;;6.78;;
55312;SDS011;46892;45.668;11.756;2023-09-19T10:30:45;11.07;;;6.38;;
55312;SDS011;46892;45.668;11.756;2023-09-19T10:33:13;15.98;;;7.68;;
55312;SDS011;46892;45.668;11.756;2023-09-19T10:35:41;11.80;;;6.45;;
55312;SDS011;46892;45.668;11.756;2023-09-19T10:38:09;9.43;;;5.70;;
55312;SDS011;46892;45.668;11.756;2023-09-19T10:40:37;10.00;;;5.75;;
55312;SDS011;46892;45.668;11.756;2023-09-19T10:43:08;9.77;;;6.15;;
55312;SDS011;46892;45.668;11.756;2023-09-19T10:45:37;11.95;;;6.43;;
55312;SDS011;46892;45.668;11.756;2023-09-19T10:48:06;12.05;;;5.40;;
55312;SDS011;46892;45.668;11.756;2023-09-19T10:53:32;9.45;;;4.88;;
55312;SDS011;46892;45.668;11.756;2023-09-19T10:56:13;7.55;;;4.85;;
55312;SDS011;46892;45.668;11.756;2023-09-19T11:01:41;7.68;;;4.53;;
55312;SDS011;46892;45.668;11.756;2023-09-19T11:04:21;7.40;;;4.25;;
55312;SDS011;46892;45.668;11.756;2023-09-19T11:07:11;8.02;;;3.67;;
55312;SDS011;46892;45.668;11.756;2023-09-19T11:12:57;7.38;;;4.63;;
55312;SDS011;46892;45.668;11.756;2023-09-19T11:15:08;8.68;;;5.13;;
55312;SDS011;46892;45.668;11.756;2023-09-19T11:17:37;8.52;;;4.68;;
55312;SDS011;46892;45.668;11.756;2023-09-19T11:23:23;9.93;;;4.53;;
55312;SDS011;46892;45.668;11.756;2023-09-19T11:30:39;10.30;;;4.50;;
55312;SDS011;46892;45.668;11.756;2023-09-19T11:33:17;8.27;;;3.60;;
55312;SDS011;46892;45.668;11.756;2023-09-19T11:49:24;5.47;;;2.95;;
55312;SDS011;46892;45.668;11.756;2023-09-19T11:51:57;5.72;;;2.95;;
55312;SDS011;46892;45.668;11.756;2023-09-19T11:54:26;8.55;;;2.95;;
55312;SDS011;46892;45.668;11.756;2023-09-19T11:56:56;7.10;;;3.25;;
55312;SDS011;46892;45.668;11.756;2023-09-19T11:59:24;5.53;;;3.45;;
55312;SDS011;46892;45.668;11.756;2023-09-19T12:01:58;5.88;;;3.67;;
55312;SDS011;46892;45.668;11.756;2023-09-19T12:04:38;9.00;;;4.70;;
55312;SDS011;46892;45.668;11.756;2023-09-19T12:07:15;7.03;;;3.55;;
55312;SDS011;46892;45.668;11.756;2023-09-19T12:09:42;8.02;;;3.40;;
55312;SDS011;46892;45.668;11.756;2023-09-19T12:12:11;6.30;;;2.70;;
55312;SDS011;46892;45.668;11.756;2023-09-19T12:15:00;8.20;;;3.88;;
55312;SDS011;46892;45.668;11.756;2023-09-19T12:17:40;7.10;;;3.25;;
55312;SDS011;46892;45.668;11.756;2023-09-19T12:20:08;7.65;;;2.92;;
55312;SDS011;46892;45.668;11.756;2023-09-19T12:22:45;5.22;;;2.63;;
55312;SDS011;46892;45.668;11.756;2023-09-19T12:25:12;6.00;;;2.83;;
55312;SDS011;46892;45.668;11.756;2023-09-19T12:27:41;5.50;;;3.53;;
55312;SDS011;46892;45.668;11.756;2023-09-19T12:30:12;7.78;;;3.20;;
55312;SDS011;46892;45.668;11.756;2023-09-19T12:32:44;8.32;;;3.05;;
55312;SDS011;46892;45.668;11.756;2023-09-19T12:35:26;5.00;;;2.60;;
55312;SDS011;46892;45.668;11.756;2023-09-19T12:37:55;4.97;;;3.10;;
55312;SDS011;46892;45.668;11.756;2023-09-19T12:40:22;6.22;;;2.90;;
55312;SDS011;46892;45.668;11.756;2023-09-19T12:42:52;5.95;;;3.33;;
55312;SDS011;46892;45.668;11.756;2023-09-19T12:45:23;8.25;;;2.88;;
55312;SDS011;46892;45.668;11.756;2023-09-19T12:53:31;5.32;;;2.88;;
55312;SDS011;46892;45.668;11.756;2023-09-19T12:55:59;7.20;;;3.33;;
55312;SDS011;46892;45.668;11.756;2023-09-19T12:58:25;9.55;;;3.47;;
55312;SDS011;46892;45.668;11.756;2023-09-19T13:00:51;8.85;;;3.38;;
55312;SDS011;46892;45.668;11.756;2023-09-19T13:03:27;6.65;;;3.08;;
55312;SDS011;46892;45.668;11.756;2023-09-19T13:06:01;5.95;;;2.83;;
55312;SDS011;46892;45.668;11.756;2023-09-19T13:14:01;7.82;;;3.00;;
55312;SDS011;46892;45.668;11.756;2023-09-19T13:19:39;5.13;;;2.60;;
55312;SDS011;46892;45.668;11.756;2023-09-19T13:25:04;5.80;;;2.67;;
55312;SDS011;46892;45.668;11.756;2023-09-19T13:27:32;5.97;;;3.17;;
55312;SDS011;46892;45.668;11.756;2023-09-19T13:29:58;7.03;;;2.70;;
55312;SDS011;46892;45.668;11.756;2023-09-19T13:32:24;4.75;;;2.50;;
55312;SDS011;46892;45.668;11.756;2023-09-19T13:34:50;5.30;;;2.63;;
55312;SDS011;46892;45.668;11.756;2023-09-19T13:37:16;5.65;;;2.70;;
55312;SDS011;46892;45.668;11.756;2023-09-19T13:39:43;6.70;;;3.05;;
55312;SDS011;46892;45.668;11.756;2023-09-19T13:42:12;6.63;;;2.90;;
55312;SDS011;46892;45.668;11.756;2023-09-19T13:44:39;6.00;;;3.17;;
55312;SDS011;46892;45.668;11.756;2023-09-19T13:47:06;6.03;;;2.78;;
55312;SDS011;46892;45.668;11.756;2023-09-19T13:49:35;7.75;;;2.97;;
55312;SDS011;46892;45.668;11.756;2023-09-19T13:52:03;5.20;;;2.70;;
55312;SDS011;46892;45.668;11.756;2023-09-19T13:54:29;5.70;;;2.58;;
55312;SDS011;46892;45.668;11.756;2023-09-19T13:56:55;5.78;;;2.80;;
55312;SDS011;46892;45.668;11.756;2023-09-19T13:59:21;8.70;;;2.90;;
55312;SDS011;46892;45.668;11.756;2023-09-19T14:01:49;6.78;;;3.33;;
55312;SDS011;46892;45.668;11.756;2023-09-19T14:04:15;6.93;;;2.80;;
55312;SDS011;46892;45.668;11.756;2023-09-19T14:06:42;5.03;;;2.80;;
55312;SDS011;46892;45.668;11.756;2023-09-19T14:09:08;4.85;;;2.90;;
55312;SDS011;46892;45.668;11.756;2023-09-19T14:11:35;8.93;;;3.20;;
55312;SDS011;46892;45.668;11.756;2023-09-19T14:14:01;6.28;;;2.85;;
55312;SDS011;46892;45.668;11.756;2023-09-19T14:16:29;8.77;;;3.95;;
55312;SDS011;46892;45.668;11.756;2023-09-19T14:18:56;7.13;;;3.42;;
55312;SDS011;46892;45.668;11.756;2023-09-19T14:21:23;6.50;;;3.40;;
55312;SDS011;46892;45.668;11.756;2023-09-19T14:23:49;8.63;;;3.72;;
55312;SDS011;46892;45.668;11.756;2023-09-19T14:26:15;10.15;;;3.50;;
55312;SDS011;46892;45.668;11.756;2023-09-19T14:28:43;9.25;;;3.75;;
55312;SDS011;46892;45.668;11.756;2023-09-19T14:31:11;6.60;;;3.67;;
55312;SDS011;46892;45.668;11.756;2023-09-19T14:33:39;7.13;;;3.13;;
55312;SDS011;46892;45.668;11.756;2023-09-19T14:36:07;9.98;;;3.53;;
55312;SDS011;46892;45.668;11.756;2023-09-19T14:38:36;9.13;;;3.10;;
55312;SDS011;46892;45.668;11.756;2023-09-19T14:41:02;6.28;;;3.20;;
55312;SDS011;46892;45.668;11.756;2023-09-19T14:43:31;6.65;;;3.05;;
55312;SDS011;46892;45.668;11.756;2023-09-19T14:48:32;7.38;;;3.30;;
55312;SDS011;46892;45.668;11.756;2023-09-19T14:51:03;7.88;;;3.30;;
55312;SDS011;46892;45.668;11.756;2023-09-19T14:53:37;9.18;;;3.63;;
55312;SDS011;46892;45.668;11.756;2023-09-19T14:56:09;8.25;;;2.72;;
55312;SDS011;46892;45.668;11.756;2023-09-19T14:58:36;5.45;;;2.67;;
55312;SDS011;46892;45.668;11.756;2023-09-19T15:01:10;6.35;;;2.60;;
55312;SDS011;46892;45.668;11.756;2023-09-19T15:03:38;6.72;;;2.90;;
55312;SDS011;46892;45.668;11.756;2023-09-19T15:06:07;7.75;;;2.60;;
55312;SDS011;46892;45.668;11.756;2023-09-19T15:08:38;5.65;;;2.70;;
55312;SDS011;46892;45.668;11.756;2023-09-19T15:11:05;6.93;;;2.65;;
55312;SDS011;46892;45.668;11.756;2023-09-19T15:13:34;9.38;;;3.05;;
55312;SDS011;46892;45.668;11.756;2023-09-19T15:16:03;8.82;;;2.53;;
55312;SDS011;46892;45.668;11.756;2023-09-19T15:18:40;9.52;;;2.75;;
55312;SDS011;46892;45.668;11.756;2023-09-19T15:21:08;5.47;;;2.47;;
55312;SDS011;46892;45.668;11.756;2023-09-19T15:26:04;6.70;;;2.42;;
55312;SDS011;46892;45.668;11.756;2023-09-19T15:28:31;8.20;;;3.40;;
55312;SDS011;46892;45.668;11.756;2023-09-19T15:31:01;8.55;;;2.50;;
55312;SDS011;46892;45.668;11.756;2023-09-19T15:33:29;5.88;;;2.55;;
55312;SDS011;46892;45.668;11.756;2023-09-19T15:38:50;8.55;;;2.20;;
55312;SDS011;46892;45.668;11.756;2023-09-19T15:41:34;9.10;;;2.30;;
55312;SDS011;46892;45.668;11.756;2023-09-19T15:44:10;4.70;;;1.88;;
55312;SDS011;46892;45.668;11.756;2023-09-19T15:46:37;6.80;;;2.30;;
55312;SDS011;46892;45.668;11.756;2023-09-19T15:49:03;10.75;;;2.70;;
55312;SDS011;46892;45.668;11.756;2023-09-19T15:51:29;9.13;;;2.38;;